This is the latest recevied weather packets stored in our database for station/object KC1HBM. If no packets are shown the sender has not sent any weather packets the latest 1 day(s).
| Time | Temp. | Humidity | Pressure | Rain* | Wind** | Luminosity | Snow |
|---|---|---|---|---|---|---|---|
| 1778081668 | 13.89° C | 89% | 1006.6 hPa | 0 mm | - | 108 W/m² | - |
| 1778080761 | 13.89° C | 89% | 1006.7 hPa | 0 mm | - | 128 W/m² | - |
| 1778080155 | 13.89° C | 89% | 1006.6 hPa | 0 mm | - | 187 W/m² | - |
| 1778079548 | 13.89° C | 88% | 1006.8 hPa | 0 mm | - | 106 W/m² | - |
| 1778078033 | 13.89° C | 89% | 1006.4 hPa | 0 mm | - | 270 W/m² | - |
| 1778077429 | 13.33° C | 90% | 1006.5 hPa | 0 mm | - | 195 W/m² | - |
| 1778076825 | 13.33° C | 91% | 1006.8 hPa | 0 mm | - | 148 W/m² | - |
| 1778076523 | 13.33° C | 92% | 1006.9 hPa | 0 mm | - | 122 W/m² | - |
| 1778075613 | 13.33° C | 92% | 1006.8 hPa | 0 mm | - | 103 W/m² | - |
| 1778074703 | 12.78° C | 93% | 1006.9 hPa | 0 mm | - | 94 W/m² | - |
| 1778072581 | 12.78° C | 92% | 1006.8 hPa | 0 mm | - | 162 W/m² | - |
| 1778071977 | 12.78° C | 92% | 1006.8 hPa | 0 mm | - | 160 W/m² | - |
| 1778070768 | 12.78° C | 91% | 1006.7 hPa | 0 mm | - | 93 W/m² | - |
| 1778069860 | 12.78° C | 91% | 1007 hPa | 0 mm | - | 86 W/m² | - |
| 1778068347 | 12.78° C | 92% | 1007.1 hPa | 0 mm | - | 74 W/m² | - |
| 1778067742 | 12.78° C | 92% | 1007.2 hPa | 0 mm | - | 46 W/m² | - |
| 1778065927 | 12.22° C | 92% | 1007.4 hPa | 0 mm | - | 34 W/m² | - |
| 1778065321 | 12.22° C | 92% | 1007.1 hPa | 0 mm | - | 38 W/m² | - |
| 1778064110 | 12.22° C | 93% | 1007.2 hPa | 0 mm | - | 23 W/m² | - |
| 1778062899 | 11.67° C | 93% | 1007.3 hPa | 0 mm | - | 27 W/m² | - |
| 1778062292 | 11.11° C | 93% | 1007 hPa | 0 mm | - | 28 W/m² | - |
| 1778061387 | 10.56° C | 94% | 1007 hPa | 0 mm | - | 17 W/m² | - |
| 1778060781 | 10.56° C | 94% | 1007.1 hPa | 0 mm | - | 5 W/m² | - |
| 1778060177 | 10.56° C | 94% | 1006.8 hPa | 0 mm | - | 2 W/m² | - |
| 1778059874 | 10.56° C | 94% | 1006.6 hPa | 0 mm | - | 0 W/m² | - |
* Rain latest hour (hover to see other rain measurements)
** Current wind speed in m/s (hover to see current wind gust speed)